KSWO/SWO METAR and TAF weather

Enter ICAO airport designator
Station Type Date Time Source
KSWO METAR 2020/04/06 13:53 UTC NOAA

KSWO 061353Z 17009KT 10SM OVC016 17/13 A2998 RMK AO2 SLP143 T01670133


Station Type Date Time Source
KSWO Decoded METAR 2020/04/06 13:53 UTC NOAA

STILLWATER REGIONAL AIRPORT, OK, United States (KSWO) 36-10N 97-05W 290M
Apr 06, 2020 - 09:53 AM EDT / 2020.04.06 1353 UTC
Wind: from the S (170 degrees) at 10 MPH (9 KT):0
Visibility: 10 mile(s):0
Sky conditions: overcast
Temperature: 62.1 F (16.7 C)
Dew Point: 55.9 F (13.3 C)
Relative Humidity: 80%
Pressure (altimeter): 29.98 in. Hg (1015 hPa)
ob: KSWO 061353Z 17009KT 10SM OVC016 17/13 A2998 RMK AO2 SLP143 T01670133
cycle: 14

Station Type Date Time Source
KSWO TAF UTC NOAA

Error!

Example: see airport list